sensor_id;sensor_type;location;lat;lon;timestamp;pressure;altitude;pressure_sealevel;temperature;humidity
73501;BME280;61721;42.206;25.320;2023-02-28T00:00:27;100146.63;;;12.83;69.81
73501;BME280;61721;42.206;25.320;2023-02-28T00:02:57;100152.25;;;12.90;69.70
73501;BME280;61721;42.206;25.320;2023-02-28T00:05:25;100142.81;;;12.66;70.19
73501;BME280;61721;42.206;25.320;2023-02-28T00:07:53;100146.75;;;12.81;69.93
73501;BME280;61721;42.206;25.320;2023-02-28T00:10:22;100142.97;;;12.65;70.52
73501;BME280;61721;42.206;25.320;2023-02-28T00:12:50;100152.88;;;12.64;70.38
73501;BME280;61721;42.206;25.320;2023-02-28T00:15:18;100138.16;;;12.68;70.12
73501;BME280;61721;42.206;25.320;2023-02-28T00:17:46;100147.94;;;12.69;70.26
73501;BME280;61721;42.206;25.320;2023-02-28T00:20:15;100153.31;;;12.40;71.04
73501;BME280;61721;42.206;25.320;2023-02-28T00:22:45;100149.94;;;12.48;70.75
73501;BME280;61721;42.206;25.320;2023-02-28T00:25:14;100138.50;;;12.27;71.17
73501;BME280;61721;42.206;25.320;2023-02-28T00:27:42;100158.84;;;12.39;70.58
73501;BME280;61721;42.206;25.320;2023-02-28T00:30:12;100151.22;;;12.25;71.13
73501;BME280;61721;42.206;25.320;2023-02-28T00:32:39;100159.25;;;12.25;71.27
73501;BME280;61721;42.206;25.320;2023-02-28T00:35:08;100162.09;;;12.33;70.73
73501;BME280;61721;42.206;25.320;2023-02-28T00:37:37;100176.09;;;12.17;71.51
73501;BME280;61721;42.206;25.320;2023-02-28T00:40:05;100175.53;;;12.23;70.96
73501;BME280;61721;42.206;25.320;2023-02-28T00:42:34;100180.59;;;11.97;71.43
73501;BME280;61721;42.206;25.320;2023-02-28T00:45:01;100182.28;;;11.98;71.51
73501;BME280;61721;42.206;25.320;2023-02-28T00:47:30;100188.91;;;11.94;71.00
73501;BME280;61721;42.206;25.320;2023-02-28T00:49:57;100199.78;;;12.03;70.89
73501;BME280;61721;42.206;25.320;2023-02-28T00:52:25;100192.53;;;11.74;71.48
73501;BME280;61721;42.206;25.320;2023-02-28T00:54:53;100202.59;;;11.82;71.40
73501;BME280;61721;42.206;25.320;2023-02-28T00:57:20;100208.78;;;11.82;71.40
73501;BME280;61721;42.206;25.320;2023-02-28T00:59:48;100213.50;;;11.69;71.41
73501;BME280;61721;42.206;25.320;2023-02-28T01:02:15;100223.34;;;11.59;71.36
73501;BME280;61721;42.206;25.320;2023-02-28T01:04:43;100226.53;;;11.74;71.18
73501;BME280;61721;42.206;25.320;2023-02-28T01:07:10;100214.78;;;11.65;71.55
73501;BME280;61721;42.206;25.320;2023-02-28T01:09:37;100213.16;;;11.53;72.28
73501;BME280;61721;42.206;25.320;2023-02-28T01:12:07;100208.97;;;11.60;72.47
73501;BME280;61721;42.206;25.320;2023-02-28T01:14:34;100205.00;;;11.54;72.12
73501;BME280;61721;42.206;25.320;2023-02-28T01:17:02;100208.56;;;11.25;73.31
73501;BME280;61721;42.206;25.320;2023-02-28T01:19:29;100224.63;;;11.25;72.60
73501;BME280;61721;42.206;25.320;2023-02-28T01:21:56;100228.63;;;11.09;73.10
73501;BME280;61721;42.206;25.320;2023-02-28T01:24:23;100240.97;;;11.22;72.27
73501;BME280;61721;42.206;25.320;2023-02-28T01:26:50;100210.69;;;11.00;73.04
73501;BME280;61721;42.206;25.320;2023-02-28T01:29:20;100236.94;;;11.06;72.81
73501;BME280;61721;42.206;25.320;2023-02-28T01:31:47;100227.13;;;11.17;73.31
73501;BME280;61721;42.206;25.320;2023-02-28T01:34:14;100232.75;;;11.13;72.53
73501;BME280;61721;42.206;25.320;2023-02-28T01:36:41;100236.66;;;11.09;72.56
73501;BME280;61721;42.206;25.320;2023-02-28T01:39:09;100244.31;;;10.93;73.04
73501;BME280;61721;42.206;25.320;2023-02-28T01:41:38;100239.69;;;10.95;72.77
73501;BME280;61721;42.206;25.320;2023-02-28T01:44:06;100245.09;;;10.84;73.07
73501;BME280;61721;42.206;25.320;2023-02-28T01:46:36;100237.25;;;10.92;72.68
73501;BME280;61721;42.206;25.320;2023-02-28T01:49:06;100250.84;;;11.21;71.62
73501;BME280;61721;42.206;25.320;2023-02-28T01:51:40;100248.53;;;10.86;72.50
73501;BME280;61721;42.206;25.320;2023-02-28T01:54:16;100253.97;;;10.64;72.98
73501;BME280;61721;42.206;25.320;2023-02-28T01:56:46;100255.25;;;11.01;71.64
73501;BME280;61721;42.206;25.320;2023-02-28T01:59:19;100246.53;;;10.88;72.50
73501;BME280;61721;42.206;25.320;2023-02-28T02:01:49;100252.56;;;11.01;71.31
73501;BME280;61721;42.206;25.320;2023-02-28T02:04:17;100255.03;;;10.93;71.79
73501;BME280;61721;42.206;25.320;2023-02-28T02:06:47;100251.88;;;10.67;72.07
73501;BME280;61721;42.206;25.320;2023-02-28T02:09:15;100258.59;;;10.62;73.07
73501;BME280;61721;42.206;25.320;2023-02-28T02:11:43;100259.75;;;10.80;72.55
73501;BME280;61721;42.206;25.320;2023-02-28T02:14:35;100270.78;;;10.66;72.79
73501;BME280;61721;42.206;25.320;2023-02-28T02:17:18;100281.22;;;10.69;73.17
73501;BME280;61721;42.206;25.320;2023-02-28T02:23:33;100285.81;;;10.46;72.96
73501;BME280;61721;42.206;25.320;2023-02-28T02:26:21;100277.41;;;10.51;72.59
73501;BME280;61721;42.206;25.320;2023-02-28T02:29:21;100288.13;;;10.51;72.66
73501;BME280;61721;42.206;25.320;2023-02-28T02:35:06;100278.81;;;10.66;71.68
73501;BME280;61721;42.206;25.320;2023-02-28T02:37:43;100290.88;;;10.17;73.46
73501;BME280;61721;42.206;25.320;2023-02-28T02:40:16;100293.97;;;10.45;71.92
73501;BME280;61721;42.206;25.320;2023-02-28T02:42:50;100291.53;;;10.42;73.16
73501;BME280;61721;42.206;25.320;2023-02-28T02:45:24;100307.16;;;10.03;73.43
73501;BME280;61721;42.206;25.320;2023-02-28T02:47:51;100293.25;;;10.32;72.36
73501;BME280;61721;42.206;25.320;2023-02-28T02:50:24;100286.41;;;10.50;72.13
73501;BME280;61721;42.206;25.320;2023-02-28T02:52:56;100291.28;;;10.45;72.38
73501;BME280;61721;42.206;25.320;2023-02-28T02:55:24;100293.53;;;10.06;73.44
73501;BME280;61721;42.206;25.320;2023-02-28T02:57:54;100303.38;;;10.28;72.62
73501;BME280;61721;42.206;25.320;2023-02-28T03:00:26;100317.38;;;10.09;72.53
73501;BME280;61721;42.206;25.320;2023-02-28T03:02:57;100311.16;;;10.09;73.24
73501;BME280;61721;42.206;25.320;2023-02-28T03:05:29;100322.72;;;9.76;73.60
73501;BME280;61721;42.206;25.320;2023-02-28T03:07:59;100326.63;;;9.94;72.79
73501;BME280;61721;42.206;25.320;2023-02-28T03:10:30;100331.38;;;9.79;73.69
73501;BME280;61721;42.206;25.320;2023-02-28T03:13:40;100343.63;;;9.49;74.32
73501;BME280;61721;42.206;25.320;2023-02-28T03:16:25;100333.44;;;9.65;74.06
73501;BME280;61721;42.206;25.320;2023-02-28T03:21:49;100365.00;;;9.82;74.10
73501;BME280;61721;42.206;25.320;2023-02-28T03:24:27;100356.50;;;9.43;74.15
73501;BME280;61721;42.206;25.320;2023-02-28T03:27:03;100364.28;;;9.69;73.66
73501;BME280;61721;42.206;25.320;2023-02-28T03:29:35;100364.31;;;9.80;73.46
73501;BME280;61721;42.206;25.320;2023-02-28T03:32:11;100375.31;;;9.75;74.08
73501;BME280;61721;42.206;25.320;2023-02-28T03:34:47;100365.84;;;9.71;73.82
73501;BME280;61721;42.206;25.320;2023-02-28T03:37:20;100356.84;;;9.61;73.84
73501;BME280;61721;42.206;25.320;2023-02-28T03:39:53;100357.50;;;9.65;73.43
73501;BME280;61721;42.206;25.320;2023-02-28T03:42:23;100360.41;;;9.73;73.04
73501;BME280;61721;42.206;25.320;2023-02-28T03:44:55;100346.03;;;9.52;74.18
73501;BME280;61721;42.206;25.320;2023-02-28T03:47:27;100355.41;;;9.68;73.20
73501;BME280;61721;42.206;25.320;2023-02-28T03:49:57;100355.53;;;9.67;73.02
73501;BME280;61721;42.206;25.320;2023-02-28T03:52:27;100352.13;;;9.54;73.35
73501;BME280;61721;42.206;25.320;2023-02-28T03:55:00;100359.66;;;9.71;72.87
73501;BME280;61721;42.206;25.320;2023-02-28T03:57:37;100354.56;;;9.57;73.40
73501;BME280;61721;42.206;25.320;2023-02-28T04:00:09;100358.53;;;9.51;73.20
73501;BME280;61721;42.206;25.320;2023-02-28T04:02:39;100367.66;;;9.49;73.35
73501;BME280;61721;42.206;25.320;2023-02-28T04:05:07;100374.22;;;9.56;73.65
73501;BME280;61721;42.206;25.320;2023-02-28T04:07:40;100382.25;;;9.44;73.37
73501;BME280;61721;42.206;25.320;2023-02-28T04:10:09;100397.41;;;9.44;73.55
73501;BME280;61721;42.206;25.320;2023-02-28T04:12:38;100385.16;;;9.53;72.61
73501;BME280;61721;42.206;25.320;2023-02-28T04:15:06;100365.25;;;9.57;73.06
73501;BME280;61721;42.206;25.320;2023-02-28T04:17:36;100389.50;;;9.42;73.21
73501;BME280;61721;42.206;25.320;2023-02-28T04:20:04;100389.41;;;9.55;73.21
73501;BME280;61721;42.206;25.320;2023-02-28T04:22:35;100379.56;;;9.56;72.95
73501;BME280;61721;42.206;25.320;2023-02-28T04:25:06;100374.97;;;9.69;72.73
73501;BME280;61721;42.206;25.320;2023-02-28T04:27:33;100383.50;;;9.74;72.61
73501;BME280;61721;42.206;25.320;2023-02-28T04:30:00;100371.44;;;9.57;72.62
73501;BME280;61721;42.206;25.320;2023-02-28T04:32:27;100384.22;;;9.65;72.72
73501;BME280;61721;42.206;25.320;2023-02-28T04:34:54;100379.06;;;9.51;73.05
73501;BME280;61721;42.206;25.320;2023-02-28T04:37:23;100393.03;;;9.43;73.49
73501;BME280;61721;42.206;25.320;2023-02-28T04:39:54;100395.59;;;9.44;73.44
73501;BME280;61721;42.206;25.320;2023-02-28T04:42:23;100383.22;;;9.55;73.22
73501;BME280;61721;42.206;25.320;2023-02-28T04:44:50;100398.69;;;9.84;72.46
73501;BME280;61721;42.206;25.320;2023-02-28T04:47:17;100401.06;;;9.43;72.85
73501;BME280;61721;42.206;25.320;2023-02-28T04:49:44;100424.59;;;9.38;73.97
73501;BME280;61721;42.206;25.320;2023-02-28T04:52:11;100410.72;;;9.33;74.07
73501;BME280;61721;42.206;25.320;2023-02-28T04:54:38;100411.19;;;9.27;73.62
73501;BME280;61721;42.206;25.320;2023-02-28T04:57:06;100418.78;;;9.44;73.50
73501;BME280;61721;42.206;25.320;2023-02-28T04:59:34;100414.97;;;9.35;74.60
73501;BME280;61721;42.206;25.320;2023-02-28T05:02:01;100407.84;;;9.47;73.50
73501;BME280;61721;42.206;25.320;2023-02-28T05:04:32;100419.47;;;9.35;73.89
73501;BME280;61721;42.206;25.320;2023-02-28T05:07:00;100416.44;;;9.28;74.21
73501;BME280;61721;42.206;25.320;2023-02-28T05:09:27;100418.69;;;9.57;73.60
73501;BME280;61721;42.206;25.320;2023-02-28T05:11:55;100417.81;;;9.56;73.29
73501;BME280;61721;42.206;25.320;2023-02-28T05:14:22;100416.53;;;9.27;73.74
73501;BME280;61721;42.206;25.320;2023-02-28T05:16:52;100430.28;;;9.79;72.44
73501;BME280;61721;42.206;25.320;2023-02-28T05:19:19;100439.47;;;9.18;73.68
73501;BME280;61721;42.206;25.320;2023-02-28T05:21:52;100441.53;;;9.26;73.86
73501;BME280;61721;42.206;25.320;2023-02-28T05:24:20;100440.84;;;9.35;73.99
73501;BME280;61721;42.206;25.320;2023-02-28T05:26:50;100450.72;;;9.45;73.75
73501;BME280;61721;42.206;25.320;2023-02-28T05:29:18;100447.19;;;9.45;74.04
73501;BME280;61721;42.206;25.320;2023-02-28T05:31:45;100469.28;;;9.12;74.80
73501;BME280;61721;42.206;25.320;2023-02-28T05:34:14;100456.09;;;9.57;73.41
73501;BME280;61721;42.206;25.320;2023-02-28T05:36:41;100473.66;;;9.13;75.74
73501;BME280;61721;42.206;25.320;2023-02-28T05:39:09;100472.53;;;9.28;74.55
73501;BME280;61721;42.206;25.320;2023-02-28T05:41:39;100475.25;;;9.39;74.51
73501;BME280;61721;42.206;25.320;2023-02-28T05:44:07;100481.38;;;8.81;76.14
73501;BME280;61721;42.206;25.320;2023-02-28T05:46:34;100464.97;;;8.98;75.49
73501;BME280;61721;42.206;25.320;2023-02-28T05:49:03;100484.03;;;9.05;75.63
73501;BME280;61721;42.206;25.320;2023-02-28T05:51:32;100480.94;;;9.11;75.18
73501;BME280;61721;42.206;25.320;2023-02-28T05:54:00;100476.47;;;9.47;73.80
73501;BME280;61721;42.206;25.320;2023-02-28T05:56:28;100480.53;;;9.28;74.61
73501;BME280;61721;42.206;25.320;2023-02-28T05:58:55;100479.09;;;9.35;74.62
73501;BME280;61721;42.206;25.320;2023-02-28T06:01:31;100477.13;;;9.26;74.39
73501;BME280;61721;42.206;25.320;2023-02-28T06:03:59;100470.41;;;9.56;73.19
73501;BME280;61721;42.206;25.320;2023-02-28T06:06:26;100478.63;;;9.41;73.94
73501;BME280;61721;42.206;25.320;2023-02-28T06:08:56;100473.28;;;8.94;75.34
73501;BME280;61721;42.206;25.320;2023-02-28T06:11:23;100470.19;;;9.24;74.34
73501;BME280;61721;42.206;25.320;2023-02-28T06:13:54;100473.44;;;9.16;75.12
73501;BME280;61721;42.206;25.320;2023-02-28T06:16:22;100490.66;;;9.12;75.10
73501;BME280;61721;42.206;25.320;2023-02-28T06:18:49;100487.53;;;9.53;74.12
73501;BME280;61721;42.206;25.320;2023-02-28T06:21:18;100490.78;;;9.45;73.67
73501;BME280;61721;42.206;25.320;2023-02-28T06:23:45;100502.47;;;9.44;73.97
73501;BME280;61721;42.206;25.320;2023-02-28T06:26:14;100509.16;;;9.02;75.62
73501;BME280;61721;42.206;25.320;2023-02-28T06:28:41;100507.69;;;8.98;75.73
73501;BME280;61721;42.206;25.320;2023-02-28T06:31:09;100520.34;;;8.71;76.44
73501;BME280;61721;42.206;25.320;2023-02-28T06:33:38;100521.13;;;8.97;76.01
73501;BME280;61721;42.206;25.320;2023-02-28T06:36:06;100518.28;;;9.24;74.93
73501;BME280;61721;42.206;25.320;2023-02-28T06:38:34;100529.69;;;8.89;75.82
73501;BME280;61721;42.206;25.320;2023-02-28T06:41:03;100535.69;;;8.93;75.59
73501;BME280;61721;42.206;25.320;2023-02-28T06:43:34;100559.91;;;8.90;74.91
73501;BME280;61721;42.206;25.320;2023-02-28T06:46:05;100524.16;;;9.40;73.51
73501;BME280;61721;42.206;25.320;2023-02-28T06:48:33;100528.31;;;9.20;73.91
73501;BME280;61721;42.206;25.320;2023-02-28T06:51:05;100521.22;;;9.32;73.75
73501;BME280;61721;42.206;25.320;2023-02-28T06:53:32;100515.47;;;9.25;73.85
73501;BME280;61721;42.206;25.320;2023-02-28T06:56:03;100537.22;;;9.08;74.09
73501;BME280;61721;42.206;25.320;2023-02-28T06:58:33;100527.59;;;8.69;76.06
73501;BME280;61721;42.206;25.320;2023-02-28T07:01:00;100536.06;;;8.99;75.19
73501;BME280;61721;42.206;25.320;2023-02-28T07:03:28;100537.97;;;9.10;75.16
73501;BME280;61721;42.206;25.320;2023-02-28T07:05:58;100541.09;;;8.68;76.05
73501;BME280;61721;42.206;25.320;2023-02-28T07:08:26;100544.66;;;8.92;75.51
73501;BME280;61721;42.206;25.320;2023-02-28T07:10:54;100550.50;;;8.97;75.46
73501;BME280;61721;42.206;25.320;2023-02-28T07:13:22;100550.94;;;8.91;74.65
73501;BME280;61721;42.206;25.320;2023-02-28T07:15:58;100543.59;;;9.18;74.44
73501;BME280;61721;42.206;25.320;2023-02-28T07:18:26;100554.41;;;9.04;75.05
73501;BME280;61721;42.206;25.320;2023-02-28T07:20:53;100545.34;;;9.30;74.14
73501;BME280;61721;42.206;25.320;2023-02-28T07:23:21;100555.47;;;9.14;74.24
73501;BME280;61721;42.206;25.320;2023-02-28T07:25:49;100559.47;;;8.96;75.04
73501;BME280;61721;42.206;25.320;2023-02-28T07:28:16;100554.00;;;8.48;76.92
73501;BME280;61721;42.206;25.320;2023-02-28T07:30:43;100558.72;;;8.94;75.82
73501;BME280;61721;42.206;25.320;2023-02-28T07:33:12;100559.44;;;8.59;76.45
73501;BME280;61721;42.206;25.320;2023-02-28T07:35:39;100559.81;;;8.79;76.37
73501;BME280;61721;42.206;25.320;2023-02-28T07:38:06;100563.47;;;8.78;76.57
73501;BME280;61721;42.206;25.320;2023-02-28T07:40:34;100564.97;;;8.82;76.07
73501;BME280;61721;42.206;25.320;2023-02-28T07:43:02;100547.91;;;8.72;76.64
73501;BME280;61721;42.206;25.320;2023-02-28T07:45:30;100561.56;;;8.29;77.94
73501;BME280;61721;42.206;25.320;2023-02-28T07:48:00;100580.34;;;8.66;77.47
73501;BME280;61721;42.206;25.320;2023-02-28T07:50:29;100563.50;;;8.52;78.38
73501;BME280;61721;42.206;25.320;2023-02-28T07:52:57;100547.03;;;8.58;78.33
73501;BME280;61721;42.206;25.320;2023-02-28T07:55:24;100544.38;;;8.58;78.26
73501;BME280;61721;42.206;25.320;2023-02-28T07:57:52;100550.47;;;8.73;77.56
73501;BME280;61721;42.206;25.320;2023-02-28T08:00:19;100551.69;;;8.93;76.88
73501;BME280;61721;42.206;25.320;2023-02-28T08:02:47;100565.31;;;8.52;78.64
73501;BME280;61721;42.206;25.320;2023-02-28T08:05:14;100562.63;;;8.65;78.42
73501;BME280;61721;42.206;25.320;2023-02-28T08:07:43;100564.19;;;8.80;77.10
73501;BME280;61721;42.206;25.320;2023-02-28T08:10:10;100555.28;;;9.05;76.42
73501;BME280;61721;42.206;25.320;2023-02-28T08:12:37;100570.56;;;9.02;75.77
73501;BME280;61721;42.206;25.320;2023-02-28T08:15:07;100571.38;;;8.67;77.72
73501;BME280;61721;42.206;25.320;2023-02-28T08:17:35;100580.97;;;8.82;77.31
73501;BME280;61721;42.206;25.320;2023-02-28T08:20:03;100576.06;;;8.76;77.42
73501;BME280;61721;42.206;25.320;2023-02-28T08:22:30;100585.06;;;8.49;78.33
73501;BME280;61721;42.206;25.320;2023-02-28T08:24:59;100587.94;;;8.46;78.72
73501;BME280;61721;42.206;25.320;2023-02-28T08:27:26;100591.66;;;8.82;77.59
73501;BME280;61721;42.206;25.320;2023-02-28T08:29:54;100575.63;;;8.69;78.63
73501;BME280;61721;42.206;25.320;2023-02-28T08:32:24;100578.84;;;8.49;78.83
73501;BME280;61721;42.206;25.320;2023-02-28T08:34:51;100579.16;;;8.82;77.21
73501;BME280;61721;42.206;25.320;2023-02-28T08:37:18;100573.56;;;8.98;76.74
73501;BME280;61721;42.206;25.320;2023-02-28T08:39:46;100588.47;;;8.77;77.28
73501;BME280;61721;42.206;25.320;2023-02-28T08:42:15;100574.53;;;8.84;76.93
73501;BME280;61721;42.206;25.320;2023-02-28T08:44:42;100577.13;;;8.86;76.81
73501;BME280;61721;42.206;25.320;2023-02-28T08:47:09;100586.13;;;8.59;78.05
73501;BME280;61721;42.206;25.320;2023-02-28T08:49:37;100565.16;;;8.91;77.37
73501;BME280;61721;42.206;25.320;2023-02-28T08:52:04;100580.66;;;8.74;77.51
73501;BME280;61721;42.206;25.320;2023-02-28T08:54:31;100581.94;;;9.17;76.17
73501;BME280;61721;42.206;25.320;2023-02-28T08:57:00;100588.84;;;8.96;76.93
73501;BME280;61721;42.206;25.320;2023-02-28T08:59:29;100572.13;;;8.69;77.88
73501;BME280;61721;42.206;25.320;2023-02-28T09:01:56;100579.28;;;8.68;77.49
73501;BME280;61721;42.206;25.320;2023-02-28T09:04:23;100587.06;;;9.20;75.78
73501;BME280;61721;42.206;25.320;2023-02-28T09:06:50;100597.47;;;9.12;75.59
73501;BME280;61721;42.206;25.320;2023-02-28T09:09:17;100598.91;;;8.92;76.53
73501;BME280;61721;42.206;25.320;2023-02-28T09:11:45;100600.38;;;8.84;77.10
73501;BME280;61721;42.206;25.320;2023-02-28T09:14:12;100609.34;;;9.08;76.46
73501;BME280;61721;42.206;25.320;2023-02-28T09:16:40;100604.91;;;9.20;75.45
73501;BME280;61721;42.206;25.320;2023-02-28T09:19:10;100609.88;;;9.37;74.42
73501;BME280;61721;42.206;25.320;2023-02-28T09:21:38;100601.69;;;9.27;74.90
73501;BME280;61721;42.206;25.320;2023-02-28T09:24:05;100594.19;;;9.32;74.44
73501;BME280;61721;42.206;25.320;2023-02-28T09:26:33;100593.84;;;9.37;74.73
73501;BME280;61721;42.206;25.320;2023-02-28T09:29:01;100586.03;;;9.10;75.10
73501;BME280;61721;42.206;25.320;2023-02-28T09:31:29;100570.81;;;9.71;73.19
73501;BME280;61721;42.206;25.320;2023-02-28T09:33:58;100566.25;;;9.84;72.83
73501;BME280;61721;42.206;25.320;2023-02-28T09:36:27;100551.69;;;9.53;73.48
73501;BME280;61721;42.206;25.320;2023-02-28T09:38:55;100561.63;;;9.51;74.16
73501;BME280;61721;42.206;25.320;2023-02-28T09:41:25;100557.50;;;9.82;72.31
73501;BME280;61721;42.206;25.320;2023-02-28T09:43:55;100550.28;;;9.71;73.17
73501;BME280;61721;42.206;25.320;2023-02-28T09:46:32;100537.84;;;9.94;72.49
73501;BME280;61721;42.206;25.320;2023-02-28T09:49:04;100548.56;;;9.70;72.60
73501;BME280;61721;42.206;25.320;2023-02-28T09:51:43;100546.94;;;9.57;72.98
73501;BME280;61721;42.206;25.320;2023-02-28T09:54:16;100540.38;;;9.50;74.54
73501;BME280;61721;42.206;25.320;2023-02-28T09:56:44;100543.47;;;9.67;72.77
73501;BME280;61721;42.206;25.320;2023-02-28T09:59:17;100528.81;;;9.84;73.08
73501;BME280;61721;42.206;25.320;2023-02-28T10:01:56;100520.34;;;9.90;72.49
73501;BME280;61721;42.206;25.320;2023-02-28T10:04:36;100515.38;;;10.08;72.47
73501;BME280;61721;42.206;25.320;2023-02-28T10:07:18;100517.69;;;9.90;73.00
73501;BME280;61721;42.206;25.320;2023-02-28T10:09:53;100525.81;;;10.11;72.01
73501;BME280;61721;42.206;25.320;2023-02-28T10:12:24;100519.59;;;10.45;70.93
73501;BME280;61721;42.206;25.320;2023-02-28T10:14:54;100527.97;;;10.18;70.90
73501;BME280;61721;42.206;25.320;2023-02-28T10:17:23;100523.78;;;10.14;70.87
73501;BME280;61721;42.206;25.320;2023-02-28T10:19:59;100509.72;;;10.23;70.64
73501;BME280;61721;42.206;25.320;2023-02-28T10:22:38;100511.19;;;10.27;71.05
73501;BME280;61721;42.206;25.320;2023-02-28T10:25:17;100516.72;;;10.02;71.71
73501;BME280;61721;42.206;25.320;2023-02-28T10:27:44;100513.88;;;10.39;70.22
73501;BME280;61721;42.206;25.320;2023-02-28T10:30:13;100507.78;;;10.25;70.77
73501;BME280;61721;42.206;25.320;2023-02-28T10:32:45;100514.59;;;10.29;70.86
73501;BME280;61721;42.206;25.320;2023-02-28T10:35:18;100527.41;;;10.02;71.23
73501;BME280;61721;42.206;25.320;2023-02-28T10:37:47;100526.41;;;10.38;70.04
73501;BME280;61721;42.206;25.320;2023-02-28T10:40:33;100536.47;;;10.23;70.84
73501;BME280;61721;42.206;25.320;2023-02-28T10:43:03;100535.03;;;10.19;71.70
73501;BME280;61721;42.206;25.320;2023-02-28T10:45:32;100532.00;;;9.89;72.06
73501;BME280;61721;42.206;25.320;2023-02-28T10:48:03;100528.75;;;9.62;72.70
73501;BME280;61721;42.206;25.320;2023-02-28T10:50:36;100526.75;;;10.22;71.59
73501;BME280;61721;42.206;25.320;2023-02-28T10:53:28;100530.53;;;10.20;71.04
73501;BME280;61721;42.206;25.320;2023-02-28T10:55:59;100523.97;;;9.89;72.18
73501;BME280;61721;42.206;25.320;2023-02-28T10:58:29;100520.63;;;10.09;71.33
73501;BME280;61721;42.206;25.320;2023-02-28T11:00:56;100508.25;;;10.42;69.88
73501;BME280;61721;42.206;25.320;2023-02-28T11:03:29;100504.41;;;9.88;72.09
73501;BME280;61721;42.206;25.320;2023-02-28T11:06:03;100491.69;;;10.14;71.74
73501;BME280;61721;42.206;25.320;2023-02-28T11:08:31;100491.59;;;10.16;71.22
73501;BME280;61721;42.206;25.320;2023-02-28T11:11:04;100492.13;;;9.75;73.10
73501;BME280;61721;42.206;25.320;2023-02-28T11:13:33;100497.44;;;10.32;70.72
73501;BME280;61721;42.206;25.320;2023-02-28T11:16:04;100487.59;;;10.55;69.78
73501;BME280;61721;42.206;25.320;2023-02-28T11:18:37;100486.25;;;10.38;71.01
73501;BME280;61721;42.206;25.320;2023-02-28T11:21:08;100488.03;;;10.04;71.66
73501;BME280;61721;42.206;25.320;2023-02-28T11:23:39;100482.72;;;10.38;71.14
73501;BME280;61721;42.206;25.320;2023-02-28T11:26:07;100487.41;;;10.01;71.75
73501;BME280;61721;42.206;25.320;2023-02-28T11:28:40;100494.19;;;10.40;70.14
73501;BME280;61721;42.206;25.320;2023-02-28T11:31:16;100489.56;;;10.31;71.02
73501;BME280;61721;42.206;25.320;2023-02-28T11:33:47;100495.59;;;10.21;71.18
73501;BME280;61721;42.206;25.320;2023-02-28T11:36:20;100478.31;;;10.14;70.79
73501;BME280;61721;42.206;25.320;2023-02-28T11:38:50;100471.66;;;10.42;70.69
73501;BME280;61721;42.206;25.320;2023-02-28T11:41:33;100477.50;;;10.47;70.62
73501;BME280;61721;42.206;25.320;2023-02-28T11:44:16;100464.00;;;10.60;69.88
73501;BME280;61721;42.206;25.320;2023-02-28T11:46:49;100463.50;;;10.33;70.49
73501;BME280;61721;42.206;25.320;2023-02-28T11:49:29;100466.75;;;10.03;72.10
73501;BME280;61721;42.206;25.320;2023-02-28T11:52:01;100465.28;;;9.87;72.65
73501;BME280;61721;42.206;25.320;2023-02-28T11:54:48;100446.81;;;9.96;72.94
73501;BME280;61721;42.206;25.320;2023-02-28T11:57:33;100459.25;;;10.52;70.72
73501;BME280;61721;42.206;25.320;2023-02-28T12:00:13;100442.31;;;10.63;70.35
73501;BME280;61721;42.206;25.320;2023-02-28T12:02:56;100448.94;;;10.25;71.80
73501;BME280;61721;42.206;25.320;2023-02-28T12:05:31;100456.16;;;10.01;72.90
73501;BME280;61721;42.206;25.320;2023-02-28T12:08:11;100462.66;;;10.65;69.76
73501;BME280;61721;42.206;25.320;2023-02-28T12:10:52;100455.94;;;10.04;71.93
73501;BME280;61721;42.206;25.320;2023-02-28T12:13:26;100462.28;;;10.70;70.48
73501;BME280;61721;42.206;25.320;2023-02-28T12:19:15;100471.34;;;10.01;72.59
73501;BME280;61721;42.206;25.320;2023-02-28T12:21:56;100467.19;;;10.20;72.10
73501;BME280;61721;42.206;25.320;2023-02-28T12:24:44;100457.66;;;10.16;71.33
73501;BME280;61721;42.206;25.320;2023-02-28T12:27:17;100466.16;;;10.10;72.26
73501;BME280;61721;42.206;25.320;2023-02-28T12:29:50;100477.63;;;10.23;71.75
73501;BME280;61721;42.206;25.320;2023-02-28T12:32:25;100472.22;;;10.01;73.59
73501;BME280;61721;42.206;25.320;2023-02-28T12:34:57;100468.56;;;9.80;73.67
73501;BME280;61721;42.206;25.320;2023-02-28T12:37:31;100462.50;;;9.89;73.78
73501;BME280;61721;42.206;25.320;2023-02-28T12:40:05;100456.94;;;10.14;72.83
73501;BME280;61721;42.206;25.320;2023-02-28T12:42:39;100463.50;;;10.44;72.82
73501;BME280;61721;42.206;25.320;2023-02-28T12:45:10;100461.03;;;9.96;72.90
73501;BME280;61721;42.206;25.320;2023-02-28T12:47:42;100472.41;;;9.65;74.37
73501;BME280;61721;42.206;25.320;2023-02-28T12:50:11;100460.72;;;9.66;74.95
73501;BME280;61721;42.206;25.320;2023-02-28T12:52:44;100466.88;;;9.90;74.27
73501;BME280;61721;42.206;25.320;2023-02-28T12:55:21;100464.44;;;9.98;75.41
73501;BME280;61721;42.206;25.320;2023-02-28T12:57:58;100460.09;;;10.42;73.50
73501;BME280;61721;42.206;25.320;2023-02-28T13:00:33;100463.72;;;10.07;74.39
73501;BME280;61721;42.206;25.320;2023-02-28T13:03:17;100449.66;;;10.16;74.25
73501;BME280;61721;42.206;25.320;2023-02-28T13:06:08;100436.75;;;9.99;74.50
73501;BME280;61721;42.206;25.320;2023-02-28T13:11:41;100447.22;;;10.24;73.55
73501;BME280;61721;42.206;25.320;2023-02-28T13:14:26;100452.16;;;10.07;75.11
73501;BME280;61721;42.206;25.320;2023-02-28T13:17:09;100445.72;;;9.98;74.88
73501;BME280;61721;42.206;25.320;2023-02-28T13:19:40;100461.03;;;9.96;74.63